Time;durP1;ratioP1;P1;durP2;ratioP2;P2;SDS_P1;SDS_P2;PMS_P1;PMS_P2;Temp;Humidity;BMP_temperature;BMP_pressure;BME280_temperature;BME280_humidity;BME280_pressure;Samples;Min_cycle;Max_cycle;Signal;HPM_P1;HPM_P2
2021/05/24 00:02:23;;;;;;;1.40;1.30;;;;;;;9.76;67.79;96708.03;5094408;28;20183;-67
2021/05/24 00:04:48;;;;;;;1.50;1.40;;;;;;;9.63;68.67;96705.63;5094538;28;20192;-66
2021/05/24 00:07:14;;;;;;;1.50;1.40;;;;;;;9.59;68.66;96696.59;5094508;28;20235;-68
2021/05/24 00:09:39;;;;;;;1.17;1.17;;;;;;;9.67;68.51;96685.84;5092841;28;20748;-66
2021/05/24 00:12:06;;;;;;;1.33;1.30;;;;;;;9.64;68.51;96686.25;5076434;28;20160;-66
2021/05/24 00:14:35;;;;;;;1.77;1.40;;;;;;;9.57;68.83;96683.75;5093518;28;20678;-66
2021/05/24 00:17:00;;;;;;;1.20;1.10;;;;;;;9.64;68.03;96670.56;5094096;28;20230;-66
2021/05/24 00:19:26;;;;;;;1.80;1.10;;;;;;;9.67;67.62;96672.75;5093302;28;20228;-67
2021/05/24 00:21:51;;;;;;;1.17;1.07;;;;;;;9.65;67.97;96666.94;5076162;28;20181;-66
2021/05/24 00:24:17;;;;;;;2.17;1.37;;;;;;;9.60;68.67;96667.59;5094137;28;20169;-66
2021/05/24 00:26:42;;;;;;;2.23;1.20;;;;;;;9.63;69.09;96670.81;5091822;28;20833;-66
2021/05/24 00:29:14;;;;;;;1.53;1.10;;;;;;;9.38;70.10;96661.28;5094154;28;20180;-66
2021/05/24 00:31:40;;;;;;;1.63;1.53;;;;;;;9.38;70.47;96669.13;5093001;28;20184;-67
2021/05/24 00:34:05;;;;;;;2.43;1.67;;;;;;;9.29;71.66;96670.47;5093674;28;20184;-70
2021/05/24 00:36:31;;;;;;;2.80;2.00;;;;;;;9.20;72.46;96663.91;5093155;28;20200;-66
2021/05/24 00:38:56;;;;;;;2.97;1.90;;;;;;;9.25;72.74;96674.50;5093981;28;20200;-66
2021/05/24 00:41:24;;;;;;;2.00;1.90;;;;;;;9.16;73.33;96668.81;5075595;28;20188;-66
2021/05/24 00:43:52;;;;;;;1.67;1.57;;;;;;;9.19;73.93;96667.56;5093437;28;20175;-66
2021/05/24 00:46:19;;;;;;;1.93;1.70;;;;;;;8.93;75.40;96657.41;5093814;28;20192;-66
2021/05/24 00:48:44;;;;;;;2.50;2.00;;;;;;;8.92;76.14;96651.38;5093073;28;20172;-66
2021/05/24 00:51:10;;;;;;;3.30;1.80;;;;;;;9.02;75.76;96648.28;5093480;28;20188;-66
2021/05/24 00:53:35;;;;;;;3.03;2.00;;;;;;;8.82;76.68;96627.59;5092795;28;20579;-66
2021/05/24 00:56:01;;;;;;;2.47;2.10;;;;;;;8.54;77.57;96622.88;5093177;28;20197;-66
2021/05/24 00:58:26;;;;;;;2.20;1.90;;;;;;;8.55;77.58;96618.44;5081242;28;20594;-67
2021/05/24 01:00:52;;;;;;;2.13;1.90;;;;;;;8.67;77.39;96625.34;5104365;28;20583;-66
2021/05/24 01:03:17;;;;;;;2.80;2.00;;;;;;;8.63;77.44;96623.41;5106848;28;20181;-66
2021/05/24 01:05:44;;;;;;;1.93;1.83;;;;;;;8.75;76.41;96619.81;5095908;28;20165;-65
2021/05/24 01:08:13;;;;;;;2.10;1.93;;;;;;;8.70;76.80;96616.25;5108173;28;20698;-66
2021/05/24 01:10:39;;;;;;;2.23;2.00;;;;;;;8.56;76.96;96618.25;5099771;28;20251;-65
2021/05/24 01:13:08;;;;;;;1.80;1.70;;;;;;;8.62;77.15;96617.38;5102455;28;20165;-66
2021/05/24 01:15:35;;;;;;;1.60;1.50;;;;;;;8.58;77.12;96615.41;5094921;28;20208;-66
2021/05/24 01:18:00;;;;;;;1.83;1.50;;;;;;;8.60;76.59;96606.34;5091832;28;20665;-66
2021/05/24 01:20:27;;;;;;;1.60;1.50;;;;;;;8.60;76.17;96608.94;5107919;28;20176;-65
2021/05/24 01:25:30;;;;;;;1.33;1.23;;;;;;;8.70;75.71;96605.81;5095462;28;20181;-65
2021/05/24 01:27:56;;;;;;;3.47;1.50;;;;;;;8.65;76.40;96597.84;5094417;28;20180;-65
2021/05/24 01:30:22;;;;;;;1.80;1.70;;;;;;;8.62;76.57;96585.22;5107540;28;20173;-65
2021/05/24 01:32:49;;;;;;;2.23;2.03;;;;;;;8.61;76.38;96588.84;5104986;28;20176;-65
2021/05/24 01:35:14;;;;;;;3.37;2.03;;;;;;;8.66;76.24;96583.75;5099875;28;20330;-66
2021/05/24 01:37:40;;;;;;;2.10;1.90;;;;;;;8.82;75.57;96584.97;5099573;28;20286;-65
2021/05/24 01:40:07;;;;;;;3.93;2.30;;;;;;;8.89;75.72;96578.66;5083215;28;20198;-65
2021/05/24 01:42:32;;;;;;;2.00;1.80;;;;;;;8.87;75.49;96580.69;5093117;28;20525;-65
2021/05/24 01:44:58;;;;;;;2.80;2.13;;;;;;;8.79;76.47;96586.22;5097415;28;20183;-66
2021/05/24 01:47:29;;;;;;;2.13;1.93;;;;;;;8.76;76.18;96581.44;5107797;28;20204;-65
2021/05/24 01:49:55;;;;;;;3.93;2.20;;;;;;;8.76;76.52;96579.63;5094177;28;20184;-66
2021/05/24 01:52:20;;;;;;;2.00;1.90;;;;;;;8.58;77.69;96581.47;5094989;28;20181;-66
2021/05/24 01:54:46;;;;;;;2.07;1.90;;;;;;;8.53;78.02;96582.09;5108158;28;20176;-65
2021/05/24 01:57:13;;;;;;;2.10;1.90;;;;;;;8.71;77.19;96584.69;5109400;28;20196;-66
2021/05/24 01:59:39;;;;;;;2.00;1.90;;;;;;;8.64;76.91;96585.78;5091135;28;20283;-66
2021/05/24 02:02:06;;;;;;;1.70;1.60;;;;;;;8.70;76.70;96577.88;5073786;28;20176;-66
2021/05/24 02:04:31;;;;;;;2.93;1.80;;;;;;;8.60;77.00;96580.22;5073349;28;20177;-65
2021/05/24 02:06:58;;;;;;;2.90;1.70;;;;;;;8.46;77.89;96594.44;5091808;28;20201;-68
2021/05/24 02:09:26;;;;;;;1.90;1.80;;;;;;;8.52;77.31;96590.16;5091443;28;20649;-66
2021/05/24 02:11:52;;;;;;;1.90;1.67;;;;;;;8.40;77.60;96573.63;5091559;28;20180;-65
2021/05/24 02:14:18;;;;;;;2.07;1.87;;;;;;;8.38;77.78;96567.81;5092245;28;20177;-66
2021/05/24 02:16:46;;;;;;;1.90;1.80;;;;;;;8.36;78.02;96567.25;5091376;28;20211;-65
2021/05/24 02:19:14;;;;;;;3.17;1.67;;;;;;;8.29;77.94;96582.94;5091500;28;20188;-65
2021/05/24 02:21:41;;;;;;;2.00;1.90;;;;;;;8.35;77.80;96574.28;5091280;28;20179;-65
2021/05/24 02:24:09;;;;;;;2.63;1.83;;;;;;;8.41;77.45;96564.78;5091261;28;20196;-66
2021/05/24 02:26:35;;;;;;;2.17;1.70;;;;;;;8.30;77.75;96558.47;5089095;28;20673;-66
2021/05/24 02:29:03;;;;;;;2.90;1.87;;;;;;;8.19;78.26;96556.56;5091835;28;20609;-66
2021/05/24 02:31:28;;;;;;;1.77;1.67;;;;;;;8.32;77.55;96553.81;5091400;28;20184;-65
2021/05/24 02:33:54;;;;;;;3.43;1.57;;;;;;;8.32;76.94;96540.75;5091748;28;20176;-70
2021/05/24 02:36:24;;;;;;;2.20;2.00;;;;;;;8.35;77.19;96529.88;5091367;28;20211;-64
2021/05/24 02:38:50;;;;;;;2.73;1.70;;;;;;;8.19;77.77;96530.44;5091206;28;20208;-64
2021/05/24 02:41:16;;;;;;;1.80;1.70;;;;;;;8.24;77.64;96531.38;5092041;28;20181;-65
2021/05/24 02:43:42;;;;;;;3.33;1.90;;;;;;;8.17;77.82;96535.88;5091235;28;20157;-64
2021/05/24 02:46:08;;;;;;;1.60;1.50;;;;;;;8.14;78.00;96538.91;5091250;28;20609;-64
2021/05/24 02:48:33;;;;;;;1.80;1.70;;;;;;;8.14;78.04;96525.06;5091235;28;20601;-64
2021/05/24 02:50:59;;;;;;;1.63;1.50;;;;;;;8.12;78.22;96519.28;5091559;28;20263;-64
2021/05/24 02:53:27;;;;;;;2.17;1.60;;;;;;;8.13;78.11;96523.47;5091548;28;20248;-64
2021/05/24 02:55:53;;;;;;;2.07;1.80;;;;;;;8.21;78.04;96518.75;5091496;28;20227;-65
2021/05/24 02:58:19;;;;;;;3.00;1.70;;;;;;;8.31;77.59;96511.22;5099543;28;20661;-65
2021/05/24 03:00:45;;;;;;;2.47;2.00;;;;;;;8.26;77.50;96505.84;5079123;28;20184;-64
2021/05/24 03:03:12;;;;;;;1.73;1.37;;;;;;;8.29;77.49;96517.66;5108428;28;20637;-70
2021/05/24 03:05:38;;;;;;;1.53;1.43;;;;;;;8.32;77.51;96517.25;5095134;28;20168;-66
2021/05/24 03:08:04;;;;;;;1.90;1.70;;;;;;;8.34;77.16;96518.66;5103990;28;20623;-67
2021/05/24 03:10:31;;;;;;;1.70;1.60;;;;;;;8.42;76.78;96512.31;5093399;28;20176;-68
2021/05/24 03:12:57;;;;;;;1.87;1.60;;;;;;;8.53;76.29;96508.97;5105502;28;20175;-67
2021/05/24 03:15:24;;;;;;;2.97;1.87;;;;;;;8.40;76.64;96518.78;5094147;28;20172;-67
2021/05/24 03:17:51;;;;;;;1.80;1.70;;;;;;;8.46;76.36;96515.28;5110976;28;20196;-66
2021/05/24 03:20:17;;;;;;;3.33;1.80;;;;;;;8.47;76.55;96514.28;5113649;28;20160;-66
2021/05/24 03:22:45;;;;;;;1.80;1.70;;;;;;;8.49;76.49;96518.25;5105257;28;20343;-66
2021/05/24 03:25:16;;;;;;;2.13;1.97;;;;;;;8.38;76.44;96519.00;5107044;28;20206;-67
2021/05/24 03:27:43;;;;;;;1.50;1.40;;;;;;;8.45;76.28;96532.78;5097608;28;20200;-67
2021/05/24 03:30:10;;;;;;;1.33;1.30;;;;;;;8.43;76.16;96528.78;5100989;28;20168;-66
2021/05/24 03:32:36;;;;;;;1.60;1.50;;;;;;;8.49;76.65;96517.47;5113861;28;20527;-66
2021/05/24 03:35:03;;;;;;;3.17;1.57;;;;;;;8.48;76.45;96521.88;5104448;28;20168;-66
2021/05/24 03:37:31;;;;;;;1.70;1.60;;;;;;;8.44;76.13;96525.94;5093734;28;20249;-67
2021/05/24 03:39:57;;;;;;;1.57;1.47;;;;;;;8.49;76.35;96518.25;5111555;28;20191;-67
2021/05/24 03:42:23;;;;;;;1.70;1.60;;;;;;;8.48;76.29;96510.63;5095395;28;20172;-66
2021/05/24 03:44:49;;;;;;;1.90;1.80;;;;;;;8.56;76.22;96518.19;5096131;28;20184;-66
2021/05/24 03:47:15;;;;;;;2.17;1.60;;;;;;;8.53;76.50;96519.41;5112516;28;20206;-66
2021/05/24 03:49:45;;;;;;;2.17;1.80;;;;;;;8.49;76.74;96515.66;5099574;28;20177;-67
2021/05/24 03:52:16;;;;;;;1.97;1.63;;;;;;;8.47;76.82;96509.06;5111608;28;20198;-66
2021/05/24 03:54:42;;;;;;;1.60;1.50;;;;;;;8.44;77.19;96509.47;5098089;28;20268;-66
2021/05/24 03:57:09;;;;;;;1.87;1.77;;;;;;;8.40;77.55;96503.91;5105673;28;20256;-67
2021/05/24 03:59:34;;;;;;;1.70;1.60;;;;;;;8.43;77.93;96500.06;5099689;28;20208;-66
2021/05/24 04:02:00;;;;;;;2.20;1.97;;;;;;;8.46;78.04;96508.25;5111342;28;20520;-66
2021/05/24 04:04:27;;;;;;;2.00;1.90;;;;;;;8.53;77.88;96505.53;5095173;28;20249;-66
2021/05/24 04:06:58;;;;;;;1.67;1.57;;;;;;;8.64;76.97;96500.38;5100776;28;20207;-67
2021/05/24 04:09:24;;;;;;;2.37;2.10;;;;;;;8.68;75.68;96506.78;5102600;28;20256;-67
2021/05/24 04:11:49;;;;;;;1.60;1.50;;;;;;;8.69;74.84;96515.41;5094121;28;20232;-66
2021/05/24 04:14:15;;;;;;;2.03;1.57;;;;;;;8.69;74.50;96508.34;5110988;28;20172;-67
2021/05/24 04:16:41;;;;;;;1.27;1.17;;;;;;;8.79;73.45;96493.97;5098725;28;20227;-66
2021/05/24 04:19:10;;;;;;;2.00;1.20;;;;;;;8.89;72.99;96500.25;5111890;28;20188;-66
2021/05/24 04:21:37;;;;;;;1.60;1.50;;;;;;;8.93;72.89;96505.81;5101195;28;20172;-67
2021/05/24 04:24:04;;;;;;;1.40;1.30;;;;;;;9.00;71.78;96502.09;5097201;28;20199;-66
2021/05/24 04:26:30;;;;;;;1.07;1.07;;;;;;;9.00;71.88;96502.09;5111292;28;20270;-68
2021/05/24 04:28:55;;;;;;;2.03;1.30;;;;;;;9.09;71.16;96511.22;5107845;28;20173;-66
2021/05/24 04:31:21;;;;;;;1.10;1.10;;;;;;;9.25;70.90;96507.16;5103853;28;20169;-67
2021/05/24 04:33:48;;;;;;;1.13;1.13;;;;;;;9.28;70.28;96490.22;5101283;28;20175;-66
2021/05/24 04:36:13;;;;;;;1.40;1.30;;;;;;;9.32;70.76;96501.81;5106509;28;20231;-67
2021/05/24 04:38:39;;;;;;;1.30;1.20;;;;;;;9.21;70.39;96500.78;5097155;28;20235;-67
2021/05/24 04:41:04;;;;;;;1.90;1.30;;;;;;;9.32;70.38;96491.34;5110803;28;20531;-67
2021/05/24 04:43:39;;;;;;;1.40;0.90;;;;;;;9.39;70.24;96497.28;5108072;28;20226;-65
2021/05/24 04:46:04;;;;;;;1.37;1.27;;;;;;;9.47;69.83;96486.50;5103273;28;20705;-66
2021/05/24 04:48:36;;;;;;;2.60;1.23;;;;;;;9.55;70.13;96492.19;5099408;28;20173;-65
2021/05/24 04:51:03;;;;;;;1.30;1.20;;;;;;;9.63;69.78;96493.69;5097691;28;20184;-65
2021/05/24 04:53:30;;;;;;;1.00;1.00;;;;;;;9.52;69.89;96499.69;5108025;28;20188;-66
2021/05/24 04:55:55;;;;;;;1.00;1.00;;;;;;;9.61;69.34;96493.09;5097025;28;20564;-65
2021/05/24 04:58:21;;;;;;;1.00;1.00;;;;;;;9.54;69.00;96490.59;5101569;28;20298;-66
2021/05/24 05:00:47;;;;;;;2.47;1.20;;;;;;;9.75;67.76;96483.97;5092557;28;20172;-66
2021/05/24 05:03:12;;;;;;;2.13;1.10;;;;;;;9.83;69.08;96480.22;5093534;28;20199;-66
2021/05/24 05:05:38;;;;;;;1.80;1.50;;;;;;;9.91;69.15;96479.91;5092777;28;20529;-65
2021/05/24 05:08:04;;;;;;;1.47;1.37;;;;;;;9.86;70.26;96485.03;5093716;28;20640;-66
2021/05/24 05:10:29;;;;;;;1.70;1.60;;;;;;;9.85;70.67;96491.28;5092770;28;20233;-66
2021/05/24 05:12:55;;;;;;;1.90;1.50;;;;;;;9.92;70.05;96490.13;5092509;28;20701;-65
2021/05/24 05:15:20;;;;;;;1.40;1.30;;;;;;;9.99;70.06;96495.25;5093279;28;20169;-66
2021/05/24 05:17:46;;;;;;;4.13;1.60;;;;;;;10.12;69.64;96496.81;5092292;28;20223;-66
2021/05/24 05:20:12;;;;;;;3.70;1.67;;;;;;;10.14;68.97;96486.94;5093263;28;20262;-66
2021/05/24 05:22:38;;;;;;;1.40;1.30;;;;;;;10.28;68.75;96486.47;5092788;28;20250;-66
2021/05/24 05:25:04;;;;;;;0.90;0.90;;;;;;;10.43;67.62;96484.13;5090923;28;20208;-66
2021/05/24 05:27:32;;;;;;;1.63;1.13;;;;;;;10.57;67.68;96468.94;5092954;28;20204;-66
2021/05/24 05:29:57;;;;;;;1.13;1.13;;;;;;;10.60;66.65;96478.16;5092969;28;20176;-66
2021/05/24 05:32:23;;;;;;;1.20;1.17;;;;;;;10.68;67.00;96478.59;5092950;28;20173;-66
2021/05/24 05:34:49;;;;;;;1.50;1.20;;;;;;;10.69;66.99;96474.13;5091746;28;20726;-65
2021/05/24 05:37:15;;;;;;;3.37;1.20;;;;;;;10.83;66.30;96473.59;5092755;28;20228;-66
2021/05/24 05:39:41;;;;;;;1.07;1.07;;;;;;;10.89;65.62;96471.88;5092046;28;20207;-65
2021/05/24 05:42:07;;;;;;;1.27;1.00;;;;;;;10.98;65.17;96467.81;5092524;28;20168;-66
2021/05/24 05:44:32;;;;;;;1.20;1.17;;;;;;;11.03;64.61;96467.94;5092344;28;20188;-65
2021/05/24 05:46:58;;;;;;;1.20;1.10;;;;;;;11.11;64.26;96469.34;5091956;28;20196;-65
2021/05/24 05:49:24;;;;;;;0.90;0.90;;;;;;;11.21;63.73;96466.88;5076039;28;20602;-65
2021/05/24 05:51:50;;;;;;;0.90;0.90;;;;;;;11.19;63.16;96456.66;5091512;28;20230;-67
2021/05/24 05:54:16;;;;;;;0.80;0.80;;;;;;;11.30;62.54;96456.81;5092633;28;20198;-66
2021/05/24 05:56:42;;;;;;;1.00;0.90;;;;;;;11.22;62.15;96460.63;5091754;28;20204;-65
2021/05/24 05:59:07;;;;;;;1.03;0.90;;;;;;;11.37;61.56;96454.84;5107325;28;20228;-69
2021/05/24 06:01:39;;;;;;;1.07;0.90;;;;;;;11.38;61.05;96456.41;5112611;28;20168;-65
2021/05/24 06:04:05;;;;;;;1.40;0.70;;;;;;;11.45;60.71;96454.41;5101793;28;20190;-65
2021/05/24 06:06:31;;;;;;;2.27;1.00;;;;;;;11.63;60.53;96448.91;5092556;28;20674;-66
2021/05/24 06:08:57;;;;;;;0.70;0.70;;;;;;;11.59;60.53;96439.94;5091702;28;20171;-66
2021/05/24 06:11:23;;;;;;;1.10;1.00;;;;;;;11.78;60.29;96437.84;5098413;28;20168;-67
2021/05/24 06:13:48;;;;;;;1.40;1.03;;;;;;;11.83;60.16;96433.47;5103652;28;20732;-67
2021/05/24 06:16:15;;;;;;;0.90;0.90;;;;;;;11.84;61.77;96431.63;5103338;28;20219;-66
2021/05/24 06:18:41;;;;;;;1.70;1.17;;;;;;;11.95;61.14;96443.84;5096846;28;20188;-66
2021/05/24 06:21:07;;;;;;;1.20;1.10;;;;;;;12.14;60.72;96441.75;5092727;28;20180;-66
2021/05/24 06:23:33;;;;;;;0.90;0.90;;;;;;;12.31;59.65;96437.22;5097881;28;20195;-66
2021/05/24 06:25:59;;;;;;;1.23;1.13;;;;;;;12.40;59.49;96447.03;5109124;28;20564;-69
2021/05/24 06:28:24;;;;;;;1.40;1.30;;;;;;;12.51;59.63;96440.06;5095393;28;20180;-67
2021/05/24 06:30:50;;;;;;;1.60;1.50;;;;;;;12.64;59.69;96436.25;5101863;28;20176;-66
2021/05/24 06:33:16;;;;;;;1.87;1.07;;;;;;;12.69;60.10;96441.56;5109674;28;20171;-66
2021/05/24 06:35:42;;;;;;;2.80;1.07;;;;;;;12.83;59.86;96451.41;5098289;28;20259;-66
2021/05/24 06:38:07;;;;;;;2.00;1.30;;;;;;;12.93;59.92;96439.44;5111959;28;20203;-67
2021/05/24 06:40:37;;;;;;;1.90;1.07;;;;;;;13.03;59.01;96437.66;5092544;28;20659;-66
2021/05/24 06:43:03;;;;;;;1.40;1.30;;;;;;;13.11;58.59;96446.94;5099029;28;20163;-66
2021/05/24 06:45:28;;;;;;;0.90;0.90;;;;;;;13.24;57.90;96441.28;5108752;28;20175;-66
2021/05/24 06:47:54;;;;;;;1.00;1.00;;;;;;;13.40;57.75;96448.25;5109722;28;20179;-66
2021/05/24 06:50:20;;;;;;;0.90;0.90;;;;;;;13.40;57.09;96452.72;5094464;28;20181;-66
2021/05/24 06:52:46;;;;;;;0.80;0.80;;;;;;;13.49;56.57;96444.09;5105678;28;20182;-66
2021/05/24 06:55:12;;;;;;;1.07;1.00;;;;;;;13.61;56.59;96449.19;5094148;28;20257;-70
2021/05/24 06:57:38;;;;;;;1.30;1.20;;;;;;;13.72;56.17;96442.94;5109008;28;20231;-66
2021/05/24 07:00:07;;;;;;;2.83;1.10;;;;;;;13.85;55.51;96446.97;5109545;28;20180;-66
2021/05/24 07:02:32;;;;;;;0.70;0.70;;;;;;;13.94;55.30;96445.41;5108579;28;20164;-66
2021/05/24 07:04:58;;;;;;;1.80;0.87;;;;;;;14.17;55.61;96434.47;5109713;28;20182;-66
2021/05/24 07:07:23;;;;;;;1.43;1.03;;;;;;;14.16;55.18;96446.84;5111983;28;20195;-66
2021/05/24 07:09:49;;;;;;;2.20;1.07;;;;;;;14.34;56.48;96439.53;5093320;28;20268;-67
2021/05/24 07:12:15;;;;;;;1.23;1.10;;;;;;;14.42;57.34;96439.88;5109270;28;20202;-72
2021/05/24 07:14:43;;;;;;;1.27;1.10;;;;;;;14.49;57.67;96435.13;5090822;28;20173;-66
2021/05/24 07:17:09;;;;;;;1.60;0.97;;;;;;;14.71;57.66;96427.00;5103337;28;20249;-66
2021/05/24 07:19:34;;;;;;;2.33;1.70;;;;;;;14.77;57.97;96433.09;5110856;28;20180;-66
2021/05/24 07:22:00;;;;;;;2.80;1.30;;;;;;;14.87;57.46;96438.41;5094586;28;20173;-66
2021/05/24 07:24:25;;;;;;;1.37;1.20;;;;;;;14.72;57.35;96447.06;5104132;28;20676;-66
2021/05/24 07:26:54;;;;;;;1.13;1.10;;;;;;;14.44;56.85;96440.38;5092773;28;20204;-66
2021/05/24 07:29:19;;;;;;;1.00;1.00;;;;;;;14.68;56.78;96432.81;5091459;28;20169;-66
2021/05/24 07:31:45;;;;;;;1.33;1.23;;;;;;;14.78;57.50;96434.66;5090922;28;20494;-66
2021/05/24 07:34:10;;;;;;;1.30;1.20;;;;;;;14.85;57.72;96435.22;5111664;28;20253;-66
2021/05/24 07:36:41;;;;;;;1.10;1.10;;;;;;;14.85;57.44;96437.84;5109669;28;20215;-66
2021/05/24 07:39:07;;;;;;;1.10;1.10;;;;;;;14.99;57.27;96429.16;5095036;28;20721;-66
2021/05/24 07:41:32;;;;;;;1.87;1.40;;;;;;;15.11;57.38;96431.53;5092580;28;20268;-66
2021/05/24 07:43:58;;;;;;;1.40;1.30;;;;;;;15.01;57.37;96423.63;5096894;28;20259;-67
2021/05/24 07:46:23;;;;;;;1.52;1.40;;;;;;;14.82;58.26;96425.97;5109146;28;20544;-67
2021/05/24 07:48:49;;;;;;;1.75;1.52;;;;;;;15.01;57.96;96418.34;5110170;28;20176;-66
2021/05/24 07:51:14;;;;;;;3.17;1.65;;;;;;;15.09;57.87;96422.31;5094551;28;20660;-67
2021/05/24 07:53:40;;;;;;;1.47;0.97;;;;;;;15.02;57.96;96414.66;5107036;28;20184;-66
2021/05/24 07:56:06;;;;;;;1.58;1.33;;;;;;;14.91;58.49;96419.13;5097378;28;20196;-67
2021/05/24 07:58:32;;;;;;;1.75;1.63;;;;;;;15.02;58.63;96412.00;5107826;28;20568;-65
2021/05/24 08:00:57;;;;;;;1.53;1.43;;;;;;;15.07;58.61;96417.28;5097552;28;20207;-65
2021/05/24 08:03:23;;;;;;;2.23;1.50;;;;;;;14.92;58.99;96420.72;5107267;28;20195;-65
2021/05/24 08:05:49;;;;;;;1.57;1.43;;;;;;;14.90;57.77;96411.47;5109532;28;20780;-68
2021/05/24 08:08:14;;;;;;;1.43;1.33;;;;;;;14.91;57.95;96408.56;5082456;28;20179;-65
2021/05/24 08:10:40;;;;;;;1.88;1.70;;;;;;;15.17;57.67;96411.22;5110200;28;20172;-65
2021/05/24 08:13:06;;;;;;;2.97;1.30;;;;;;;15.22;58.96;96404.09;5112682;28;20171;-66
2021/05/24 08:15:33;;;;;;;1.70;1.60;;;;;;;15.25;59.62;96397.50;5105852;28;20222;-65
2021/05/24 08:18:04;;;;;;;1.60;1.50;;;;;;;15.04;60.48;96396.72;5109960;28;20168;-66
2021/05/24 08:20:30;;;;;;;3.40;2.05;;;;;;;15.28;60.14;96396.94;5113306;28;20628;-65
2021/05/24 08:22:56;;;;;;;2.67;1.40;;;;;;;15.31;60.01;96385.88;5109041;28;20839;-65
2021/05/24 08:25:22;;;;;;;1.70;1.60;;;;;;;15.22;59.48;96392.72;5113863;28;20182;-66
2021/05/24 08:27:47;;;;;;;1.60;1.50;;;;;;;15.39;58.27;96393.25;5088868;28;20196;-65
2021/05/24 08:30:14;;;;;;;2.13;1.42;;;;;;;15.42;57.83;96395.38;5103105;28;20190;-65
2021/05/24 08:32:40;;;;;;;1.67;1.13;;;;;;;15.54;57.13;96387.19;5100174;28;20260;-65
2021/05/24 08:35:07;;;;;;;2.77;1.20;;;;;;;15.39;57.57;96369.47;5101908;28;20181;-65
2021/05/24 08:37:33;;;;;;;2.03;1.02;;;;;;;15.45;57.11;96365.75;5096287;28;20468;-66
2021/05/24 08:39:59;;;;;;;1.10;1.10;;;;;;;15.49;56.09;96364.16;5099956;28;20264;-65
2021/05/24 08:42:29;;;;;;;1.10;1.10;;;;;;;15.59;56.52;96369.47;5112329;28;20168;-65
2021/05/24 08:44:57;;;;;;;1.40;1.30;;;;;;;15.70;55.94;96365.75;5096558;28;20260;-66
2021/05/24 08:47:25;;;;;;;1.48;1.20;;;;;;;15.82;57.17;96360.16;5096345;28;20195;-66
2021/05/24 08:49:52;;;;;;;1.05;0.95;;;;;;;16.05;54.81;96351.59;5110314;28;20327;-66
2021/05/24 08:52:17;;;;;;;1.50;1.40;;;;;;;16.08;54.43;96353.72;5096512;28;20191;-68
2021/05/24 08:54:43;;;;;;;1.52;1.10;;;;;;;16.19;55.04;96357.09;5093111;28;20208;-65
2021/05/24 08:57:08;;;;;;;1.35;1.00;;;;;;;16.37;54.02;96350.38;5109337;28;20200;-66
2021/05/24 08:59:34;;;;;;;1.13;1.05;;;;;;;16.71;52.72;96359.19;5109997;28;20200;-65
2021/05/24 09:02:00;;;;;;;1.23;1.00;;;;;;;16.73;53.37;96357.03;5106031;28;20257;-65
2021/05/24 09:05:04;;;;;;;1.10;1.10;;;;;;;17.01;52.69;96366.88;5103821;28;20591;-65
2021/05/24 09:07:45;;;;;;;1.13;0.95;;;;;;;17.05;52.36;96357.31;5059521;28;20219;-66
2021/05/24 09:10:11;;;;;;;1.05;1.00;;;;;;;17.27;51.65;96353.44;5112557;28;20160;-65
2021/05/24 09:12:44;;;;;;;0.95;0.77;;;;;;;17.40;50.74;96344.81;5102083;28;20184;-66
2021/05/24 09:15:13;;;;;;;0.70;0.70;;;;;;;17.73;50.34;96343.97;5108815;28;20198;-66
2021/05/24 09:18:00;;;;;;;0.60;0.60;;;;;;;17.64;49.92;96348.31;5097657;28;20600;-66
2021/05/24 09:20:43;;;;;;;1.30;1.20;;;;;;;18.02;49.16;96329.84;5104055;28;20176;-66
2021/05/24 09:23:17;;;;;;;0.90;0.90;;;;;;;17.80;49.89;96333.03;5101529;28;20177;-67
2021/05/24 09:25:50;;;;;;;1.13;0.90;;;;;;;17.81;50.13;96339.91;5103314;28;20203;-66
2021/05/24 09:28:28;;;;;;;1.42;1.17;;;;;;;18.29;49.79;96330.00;5106101;28;20173;-66
2021/05/24 09:30:59;;;;;;;1.10;1.00;;;;;;;18.35;49.99;96341.34;5098122;28;20184;-66
2021/05/24 09:33:26;;;;;;;1.20;1.10;;;;;;;18.40;50.39;96334.09;5093470;28;20627;-66
2021/05/24 09:35:53;;;;;;;1.05;0.95;;;;;;;18.26;50.35;96333.25;5094676;28;20222;-68
2021/05/24 09:38:21;;;;;;;1.85;1.00;;;;;;;18.40;49.84;96322.69;5107773;28;20566;-66
2021/05/24 09:40:58;;;;;;;4.38;0.98;;;;;;;18.20;50.24;96321.91;5097541;28;20169;-64
2021/05/24 09:43:38;;;;;;;1.10;1.10;;;;;;;18.55;50.11;96325.97;5109454;28;20642;-65
2021/05/24 09:46:07;;;;;;;1.55;0.98;;;;;;;18.62;50.21;96323.72;5104059;28;20278;-65
2021/05/24 09:48:33;;;;;;;1.30;1.20;;;;;;;18.74;49.72;96314.53;5099780;28;20533;-64
2021/05/24 09:51:02;;;;;;;0.73;0.73;;;;;;;18.83;49.69;96318.09;5111326;28;20668;-65
2021/05/24 09:53:28;;;;;;;0.88;0.85;;;;;;;18.68;48.20;96308.50;5096936;28;20177;-65
2021/05/24 09:55:53;;;;;;;0.90;0.90;;;;;;;19.14;48.05;96313.84;5107450;28;20211;-65
2021/05/24 09:58:21;;;;;;;1.00;0.90;;;;;;;19.32;46.70;96307.69;5098835;28;20589;-67
2021/05/24 10:01:02;;;;;;;0.70;0.70;;;;;;;19.57;46.01;96311.75;5110041;28;20176;-65
2021/05/24 10:03:32;;;;;;;1.23;0.85;;;;;;;19.43;46.78;96302.97;5095708;28;20218;-65
2021/05/24 10:05:58;;;;;;;1.63;0.98;;;;;;;19.26;46.94;96313.38;5111762;28;20259;-66
2021/05/24 10:08:24;;;;;;;0.90;0.90;;;;;;;19.09;47.68;96305.97;5111713;28;20175;-65
2021/05/24 10:10:50;;;;;;;0.68;0.68;;;;;;;19.33;47.07;96308.47;5111187;28;20164;-65
2021/05/24 10:13:17;;;;;;;1.95;1.10;;;;;;;19.41;47.58;96297.16;5111126;28;20195;-65
2021/05/24 10:15:44;;;;;;;1.55;0.95;;;;;;;19.30;47.39;96283.28;5111017;28;20160;-65
2021/05/24 10:18:11;;;;;;;0.90;0.90;;;;;;;19.22;47.70;96283.97;5112024;28;20196;-65
2021/05/24 10:20:38;;;;;;;0.80;0.75;;;;;;;19.03;48.24;96276.06;5112261;28;20225;-65
2021/05/24 10:23:06;;;;;;;0.68;0.68;;;;;;;19.41;47.50;96271.38;5093854;28;20208;-66
2021/05/24 10:25:35;;;;;;;0.80;0.80;;;;;;;19.28;46.50;96276.69;5092142;28;20161;-65
2021/05/24 10:28:02;;;;;;;1.02;0.80;;;;;;;19.29;46.28;96284.34;5090194;28;20176;-65
2021/05/24 10:30:28;;;;;;;1.10;1.00;;;;;;;19.29;46.26;96272.91;5091350;28;20179;-65
2021/05/24 10:33:06;;;;;;;0.90;0.90;;;;;;;19.36;47.31;96268.00;5108940;28;20267;-65
2021/05/24 10:36:13;;;;;;;0.95;0.80;;;;;;;19.60;46.74;96273.16;5110930;28;20267;-65
2021/05/24 10:38:39;;;;;;;1.40;1.30;;;;;;;19.66;47.45;96269.34;5111597;28;20706;-64
2021/05/24 10:41:12;;;;;;;0.85;0.85;;;;;;;19.52;46.64;96269.31;5110229;28;20195;-65
2021/05/24 10:43:39;;;;;;;1.05;1.05;;;;;;;19.64;46.03;96266.97;5111596;28;20208;-65
2021/05/24 10:46:31;;;;;;;0.90;0.90;;;;;;;19.67;46.71;96260.28;5110999;28;20192;-65
2021/05/24 10:48:58;;;;;;;0.90;0.90;;;;;;;19.49;47.54;96261.97;5110549;28;20176;-65
2021/05/24 10:51:45;;;;;;;1.65;1.10;;;;;;;19.38;48.35;96263.19;5110436;28;20186;-65
2021/05/24 10:54:11;;;;;;;0.80;0.80;;;;;;;19.35;48.50;96261.13;5111563;28;20179;-65
2021/05/24 10:56:44;;;;;;;0.90;0.90;;;;;;;19.47;47.76;96254.28;5111442;28;20602;-65
2021/05/24 10:59:37;;;;;;;0.85;0.85;;;;;;;19.22;47.87;96251.28;5092524;28;20244;-64
2021/05/24 11:02:10;;;;;;;1.15;1.15;;;;;;;19.31;47.98;96249.50;5092884;28;20172;-65
2021/05/24 11:04:57;;;;;;;1.33;1.05;;;;;;;19.32;47.58;96251.09;5111295;28;20184;-65
2021/05/24 11:07:29;;;;;;;1.17;0.90;;;;;;;19.21;48.31;96252.38;5111506;28;20188;-68
2021/05/24 11:10:13;;;;;;;0.90;0.90;;;;;;;19.24;48.02;96252.56;5106121;28;20212;-65
2021/05/24 11:12:52;;;;;;;0.90;0.90;;;;;;;19.34;47.90;96239.06;5111827;28;20502;-64
2021/05/24 11:15:17;;;;;;;0.60;0.60;;;;;;;19.06;47.13;96238.25;5104013;28;20218;-66
2021/05/24 11:17:58;;;;;;;1.80;0.90;;;;;;;19.25;47.59;96240.84;5107484;28;20707;-65
2021/05/24 11:20:41;;;;;;;0.70;0.70;;;;;;;19.26;47.89;96242.44;5110639;28;20176;-65
2021/05/24 11:25:59;;;;;;;1.17;1.17;;;;;;;19.19;48.65;96238.56;5097320;28;20199;-65
2021/05/24 11:28:40;;;;;;;0.90;0.90;;;;;;;19.43;48.71;96234.66;5110917;28;20176;-64
2021/05/24 11:31:10;;;;;;;1.50;1.30;;;;;;;19.28;47.88;96226.97;5109697;28;20157;-65
2021/05/24 11:33:37;;;;;;;1.40;1.23;;;;;;;18.93;48.78;96228.44;5109598;28;20186;-63
2021/05/24 11:36:08;;;;;;;0.82;0.82;;;;;;;19.25;48.38;96230.22;5108490;28;20260;-65
2021/05/24 11:38:34;;;;;;;1.05;1.00;;;;;;;19.37;47.40;96230.53;5110586;28;20620;-65
2021/05/24 11:41:14;;;;;;;2.70;1.00;;;;;;;19.63;47.31;96225.50;5109970;28;20231;-65
2021/05/24 11:43:42;;;;;;;0.98;0.98;;;;;;;19.64;47.25;96218.31;5097073;28;20167;-64
2021/05/24 11:46:10;;;;;;;1.10;1.00;;;;;;;19.86;46.67;96215.72;5113212;28;20207;-64